sensor_id;sensor_type;location;lat;lon;timestamp;pressure;altitude;pressure_sealevel;temperature;humidity
74310;BME280;62722;51.142;17.052;2023-03-01T00:01:13;101850.06;;;-2.58;83.61
74310;BME280;62722;51.142;17.052;2023-03-01T00:03:43;101857.75;;;-2.64;83.64
74310;BME280;62722;51.142;17.052;2023-03-01T00:06:11;101854.19;;;-2.72;83.51
74310;BME280;62722;51.142;17.052;2023-03-01T00:08:38;101864.47;;;-2.75;84.01
74310;BME280;62722;51.142;17.052;2023-03-01T00:11:08;101857.59;;;-2.74;84.68
74310;BME280;62722;51.142;17.052;2023-03-01T00:13:37;101865.31;;;-2.77;84.31
74310;BME280;62722;51.142;17.052;2023-03-01T00:16:06;101865.16;;;-2.86;83.61
74310;BME280;62722;51.142;17.052;2023-03-01T00:18:35;101865.09;;;-2.92;84.35
74310;BME280;62722;51.142;17.052;2023-03-01T00:21:04;101854.97;;;-2.77;85.28
74310;BME280;62722;51.142;17.052;2023-03-01T00:23:33;101862.66;;;-2.82;85.06
74310;BME280;62722;51.142;17.052;2023-03-01T00:26:01;101856.66;;;-2.79;85.71
74310;BME280;62722;51.142;17.052;2023-03-01T00:28:28;101855.91;;;-2.71;84.98
74310;BME280;62722;51.142;17.052;2023-03-01T00:30:55;101848.09;;;-2.75;84.76
74310;BME280;62722;51.142;17.052;2023-03-01T00:33:23;101848.06;;;-2.78;85.02
74310;BME280;62722;51.142;17.052;2023-03-01T00:35:50;101845.56;;;-2.74;84.76
74310;BME280;62722;51.142;17.052;2023-03-01T00:38:19;101837.66;;;-2.83;84.08
74310;BME280;62722;51.142;17.052;2023-03-01T00:40:46;101846.16;;;-2.90;84.45
74310;BME280;62722;51.142;17.052;2023-03-01T00:43:13;101833.31;;;-2.85;84.62
74310;BME280;62722;51.142;17.052;2023-03-01T00:45:41;101831.72;;;-2.76;84.94
74310;BME280;62722;51.142;17.052;2023-03-01T00:48:08;101825.59;;;-2.82;84.63
74310;BME280;62722;51.142;17.052;2023-03-01T00:50:35;101823.81;;;-2.86;84.54
74310;BME280;62722;51.142;17.052;2023-03-01T00:53:03;101820.41;;;-2.85;85.36
74310;BME280;62722;51.142;17.052;2023-03-01T00:55:33;101818.66;;;-2.86;84.31
74310;BME280;62722;51.142;17.052;2023-03-01T00:58:01;101817.13;;;-2.74;84.29
74310;BME280;62722;51.142;17.052;2023-03-01T01:00:28;101805.78;;;-2.85;84.07
74310;BME280;62722;51.142;17.052;2023-03-01T01:02:55;101810.78;;;-2.97;84.39
74310;BME280;62722;51.142;17.052;2023-03-01T01:05:23;101815.88;;;-3.02;85.00
74310;BME280;62722;51.142;17.052;2023-03-01T01:07:50;101825.16;;;-3.13;85.10
74310;BME280;62722;51.142;17.052;2023-03-01T01:10:17;101829.38;;;-3.19;85.51
74310;BME280;62722;51.142;17.052;2023-03-01T01:12:46;101829.34;;;-3.22;86.39
74310;BME280;62722;51.142;17.052;2023-03-01T01:15:14;101834.47;;;-3.24;86.13
74310;BME280;62722;51.142;17.052;2023-03-01T01:17:42;101813.00;;;-3.20;86.27
74310;BME280;62722;51.142;17.052;2023-03-01T01:20:11;101806.25;;;-3.12;86.29
74310;BME280;62722;51.142;17.052;2023-03-01T01:22:38;101799.56;;;-2.98;85.62
74310;BME280;62722;51.142;17.052;2023-03-01T01:25:06;101800.44;;;-2.97;85.02
74310;BME280;62722;51.142;17.052;2023-03-01T01:27:34;101798.69;;;-3.00;84.75
74310;BME280;62722;51.142;17.052;2023-03-01T01:30:03;101805.53;;;-3.02;85.13
74310;BME280;62722;51.142;17.052;2023-03-01T01:32:31;101797.72;;;-3.08;85.41
74310;BME280;62722;51.142;17.052;2023-03-01T01:34:58;101797.81;;;-3.00;85.18
74310;BME280;62722;51.142;17.052;2023-03-01T01:37:26;101794.25;;;-3.08;85.19
74310;BME280;62722;51.142;17.052;2023-03-01T01:39:57;101799.28;;;-3.19;84.79
74310;BME280;62722;51.142;17.052;2023-03-01T01:42:25;101794.91;;;-3.23;85.69
74310;BME280;62722;51.142;17.052;2023-03-01T01:45:24;101798.41;;;-3.19;86.02
74310;BME280;62722;51.142;17.052;2023-03-01T01:47:54;101794.09;;;-3.19;85.70
74310;BME280;62722;51.142;17.052;2023-03-01T01:50:22;101796.69;;;-3.17;85.35
74310;BME280;62722;51.142;17.052;2023-03-01T01:52:50;101781.19;;;-3.17;85.36
74310;BME280;62722;51.142;17.052;2023-03-01T01:55:23;101768.28;;;-3.17;85.16
74310;BME280;62722;51.142;17.052;2023-03-01T01:57:56;101773.44;;;-3.19;85.04
74310;BME280;62722;51.142;17.052;2023-03-01T02:00:28;101784.66;;;-3.18;84.89
74310;BME280;62722;51.142;17.052;2023-03-01T02:02:57;101782.78;;;-3.27;84.87
74310;BME280;62722;51.142;17.052;2023-03-01T02:05:34;101774.22;;;-3.24;85.76
74310;BME280;62722;51.142;17.052;2023-03-01T02:08:04;101775.09;;;-3.24;85.03
74310;BME280;62722;51.142;17.052;2023-03-01T02:10:33;101782.78;;;-3.27;85.07
74310;BME280;62722;51.142;17.052;2023-03-01T02:13:05;101782.72;;;-3.33;84.84
74310;BME280;62722;51.142;17.052;2023-03-01T02:15:35;101784.50;;;-3.29;85.54
74310;BME280;62722;51.142;17.052;2023-03-01T02:18:04;101781.00;;;-3.31;84.97
74310;BME280;62722;51.142;17.052;2023-03-01T02:20:35;101771.47;;;-3.35;85.08
74310;BME280;62722;51.142;17.052;2023-03-01T02:23:08;101787.81;;;-3.36;84.93
74310;BME280;62722;51.142;17.052;2023-03-01T02:25:40;101767.88;;;-3.46;84.67
74310;BME280;62722;51.142;17.052;2023-03-01T02:28:22;101774.69;;;-3.51;85.26
74310;BME280;62722;51.142;17.052;2023-03-01T02:30:50;101782.34;;;-3.56;84.52
74310;BME280;62722;51.142;17.052;2023-03-01T02:33:38;101778.69;;;-3.68;84.97
74310;BME280;62722;51.142;17.052;2023-03-01T02:36:08;101777.69;;;-3.78;85.42
74310;BME280;62722;51.142;17.052;2023-03-01T02:38:37;101784.59;;;-3.75;85.83
74310;BME280;62722;51.142;17.052;2023-03-01T02:41:06;101788.19;;;-3.67;86.10
74310;BME280;62722;51.142;17.052;2023-03-01T02:43:35;101788.13;;;-3.70;85.62
74310;BME280;62722;51.142;17.052;2023-03-01T02:46:05;101793.38;;;-3.64;86.24
74310;BME280;62722;51.142;17.052;2023-03-01T02:48:41;101795.09;;;-3.66;85.93
74310;BME280;62722;51.142;17.052;2023-03-01T02:51:19;101792.56;;;-3.62;86.29
74310;BME280;62722;51.142;17.052;2023-03-01T02:53:57;101778.69;;;-3.68;85.71
74310;BME280;62722;51.142;17.052;2023-03-01T02:56:26;101785.59;;;-3.67;85.31
74310;BME280;62722;51.142;17.052;2023-03-01T02:58:55;101794.28;;;-3.62;86.07
74310;BME280;62722;51.142;17.052;2023-03-01T03:01:27;101794.28;;;-3.62;85.84
74310;BME280;62722;51.142;17.052;2023-03-01T03:04:03;101795.09;;;-3.66;85.08
74310;BME280;62722;51.142;17.052;2023-03-01T03:06:31;101783.84;;;-3.68;85.51
74310;BME280;62722;51.142;17.052;2023-03-01T03:08:58;101789.84;;;-3.69;85.64
74310;BME280;62722;51.142;17.052;2023-03-01T03:11:26;101789.75;;;-3.75;85.58
74310;BME280;62722;51.142;17.052;2023-03-01T03:13:55;101789.84;;;-3.69;86.11
74310;BME280;62722;51.142;17.052;2023-03-01T03:16:23;101788.22;;;-3.64;85.48
74310;BME280;62722;51.142;17.052;2023-03-01T03:18:50;101786.38;;;-3.71;84.83
74310;BME280;62722;51.142;17.052;2023-03-01T03:21:18;101790.59;;;-3.78;85.10
74310;BME280;62722;51.142;17.052;2023-03-01T03:23:45;101778.47;;;-3.80;84.95
74310;BME280;62722;51.142;17.052;2023-03-01T03:26:12;101772.53;;;-3.78;85.43
74310;BME280;62722;51.142;17.052;2023-03-01T03:28:41;101774.19;;;-3.80;85.28
74310;BME280;62722;51.142;17.052;2023-03-01T03:31:09;101778.44;;;-3.83;85.36
74310;BME280;62722;51.142;17.052;2023-03-01T03:33:37;101777.50;;;-3.88;85.48
74310;BME280;62722;51.142;17.052;2023-03-01T03:36:05;101762.03;;;-3.87;85.63
74310;BME280;62722;51.142;17.052;2023-03-01T03:38:32;101769.91;;;-3.81;85.02
74310;BME280;62722;51.142;17.052;2023-03-01T03:41:01;101764.66;;;-3.85;85.20
74310;BME280;62722;51.142;17.052;2023-03-01T03:43:30;101764.78;;;-3.78;85.23
74310;BME280;62722;51.142;17.052;2023-03-01T03:45:58;101762.22;;;-3.76;84.59
74310;BME280;62722;51.142;17.052;2023-03-01T03:48:27;101759.63;;;-3.76;84.90
74310;BME280;62722;51.142;17.052;2023-03-01T03:50:55;101751.84;;;-3.79;84.12
74310;BME280;62722;51.142;17.052;2023-03-01T03:53:25;101749.97;;;-3.89;83.97
74310;BME280;62722;51.142;17.052;2023-03-01T03:55:53;101744.66;;;-3.99;84.63
74310;BME280;62722;51.142;17.052;2023-03-01T03:58:22;101747.34;;;-3.91;85.04
74310;BME280;62722;51.142;17.052;2023-03-01T04:00:53;101755.88;;;-3.97;84.54
74310;BME280;62722;51.142;17.052;2023-03-01T04:03:22;101749.06;;;-3.92;84.98
74310;BME280;62722;51.142;17.052;2023-03-01T04:05:52;101749.94;;;-3.92;84.24
74310;BME280;62722;51.142;17.052;2023-03-01T04:08:21;101736.91;;;-3.99;84.96
74310;BME280;62722;51.142;17.052;2023-03-01T04:10:50;101739.47;;;-3.99;85.08
74310;BME280;62722;51.142;17.052;2023-03-01T04:13:20;101742.06;;;-3.99;84.71
74310;BME280;62722;51.142;17.052;2023-03-01T04:15:48;101746.25;;;-4.05;84.69
74310;BME280;62722;51.142;17.052;2023-03-01T04:18:18;101740.34;;;-4.00;85.18
74310;BME280;62722;51.142;17.052;2023-03-01T04:20:46;101736.84;;;-4.02;84.92
74310;BME280;62722;51.142;17.052;2023-03-01T04:23:17;101742.94;;;-4.00;85.04
74310;BME280;62722;51.142;17.052;2023-03-01T04:25:47;101740.28;;;-4.03;85.12
74310;BME280;62722;51.142;17.052;2023-03-01T04:28:20;101740.22;;;-4.07;84.98
74310;BME280;62722;51.142;17.052;2023-03-01T04:30:47;101741.09;;;-4.07;84.50
74310;BME280;62722;51.142;17.052;2023-03-01T04:33:15;101747.09;;;-4.08;84.49
74310;BME280;62722;51.142;17.052;2023-03-01T04:35:42;101739.34;;;-4.06;85.71
74310;BME280;62722;51.142;17.052;2023-03-01T04:38:09;101738.66;;;-3.99;84.82
74310;BME280;62722;51.142;17.052;2023-03-01T04:40:39;101733.41;;;-4.02;84.36
74310;BME280;62722;51.142;17.052;2023-03-01T04:43:09;101737.78;;;-4.00;84.20
74310;BME280;62722;51.142;17.052;2023-03-01T04:45:36;101737.69;;;-4.04;83.70
74310;BME280;62722;51.142;17.052;2023-03-01T04:48:04;101747.00;;;-4.12;84.22
74310;BME280;62722;51.142;17.052;2023-03-01T04:50:32;101744.41;;;-4.12;84.51
74310;BME280;62722;51.142;17.052;2023-03-01T04:52:59;101750.25;;;-4.22;84.75
74310;BME280;62722;51.142;17.052;2023-03-01T04:55:27;101743.44;;;-4.19;85.36
74310;BME280;62722;51.142;17.052;2023-03-01T04:57:57;101744.22;;;-4.23;85.07
74310;BME280;62722;51.142;17.052;2023-03-01T05:00:24;101751.00;;;-4.28;85.47
74310;BME280;62722;51.142;17.052;2023-03-01T05:02:53;101748.41;;;-4.29;85.85
74310;BME280;62722;51.142;17.052;2023-03-01T05:05:23;101753.63;;;-4.25;85.53
74310;BME280;62722;51.142;17.052;2023-03-01T05:07:55;101741.56;;;-4.29;85.65
74310;BME280;62722;51.142;17.052;2023-03-01T05:10:23;101746.84;;;-4.20;85.54
74310;BME280;62722;51.142;17.052;2023-03-01T05:12:51;101745.25;;;-4.13;85.31
74310;BME280;62722;51.142;17.052;2023-03-01T05:15:20;101742.63;;;-4.18;84.97
74310;BME280;62722;51.142;17.052;2023-03-01T05:17:51;101747.69;;;-4.21;85.06
74310;BME280;62722;51.142;17.052;2023-03-01T05:20:18;101750.13;;;-4.28;84.60
74310;BME280;62722;51.142;17.052;2023-03-01T05:22:48;101748.47;;;-4.26;85.64
74310;BME280;62722;51.142;17.052;2023-03-01T05:25:16;101750.94;;;-4.31;85.31
74310;BME280;62722;51.142;17.052;2023-03-01T05:27:43;101752.59;;;-4.34;85.35
74310;BME280;62722;51.142;17.052;2023-03-01T05:30:12;101745.84;;;-4.28;85.64
74310;BME280;62722;51.142;17.052;2023-03-01T05:32:46;101749.34;;;-4.26;85.16
74310;BME280;62722;51.142;17.052;2023-03-01T05:35:15;101744.19;;;-4.26;85.27
74310;BME280;62722;51.142;17.052;2023-03-01T05:37:44;101734.78;;;-4.22;84.38
74310;BME280;62722;51.142;17.052;2023-03-01T05:40:14;101744.97;;;-4.28;83.90
74310;BME280;62722;51.142;17.052;2023-03-01T05:42:43;101745.69;;;-4.37;84.69
74310;BME280;62722;51.142;17.052;2023-03-01T05:45:12;101747.34;;;-4.39;84.58
74310;BME280;62722;51.142;17.052;2023-03-01T05:47:40;101752.56;;;-4.36;84.74
74310;BME280;62722;51.142;17.052;2023-03-01T05:50:13;101757.72;;;-4.36;85.14
74310;BME280;62722;51.142;17.052;2023-03-01T05:52:45;101757.66;;;-4.39;85.21
74310;BME280;62722;51.142;17.052;2023-03-01T05:55:13;101756.25;;;-4.23;85.22
74310;BME280;62722;51.142;17.052;2023-03-01T05:57:40;101762.22;;;-4.24;84.81
74310;BME280;62722;51.142;17.052;2023-03-01T06:00:09;101753.63;;;-4.25;84.87
74310;BME280;62722;51.142;17.052;2023-03-01T06:02:36;101760.56;;;-4.22;85.39
74310;BME280;62722;51.142;17.052;2023-03-01T06:05:04;101762.22;;;-4.24;84.77
74310;BME280;62722;51.142;17.052;2023-03-01T06:07:33;101766.41;;;-4.31;84.86
74310;BME280;62722;51.142;17.052;2023-03-01T06:10:01;101770.00;;;-4.23;85.65
74310;BME280;62722;51.142;17.052;2023-03-01T06:12:30;101769.22;;;-4.17;85.12
74310;BME280;62722;51.142;17.052;2023-03-01T06:14:58;101761.53;;;-4.16;84.97
74310;BME280;62722;51.142;17.052;2023-03-01T06:17:26;101764.91;;;-4.20;85.00
74310;BME280;62722;51.142;17.052;2023-03-01T06:19:56;101761.53;;;-4.16;85.28
74310;BME280;62722;51.142;17.052;2023-03-01T06:22:23;101755.59;;;-4.12;85.03
74310;BME280;62722;51.142;17.052;2023-03-01T06:24:52;101747.91;;;-4.10;85.10
74310;BME280;62722;51.142;17.052;2023-03-01T06:27:19;101747.09;;;-4.08;85.29
74310;BME280;62722;51.142;17.052;2023-03-01T06:29:47;101747.16;;;-4.03;85.42
74310;BME280;62722;51.142;17.052;2023-03-01T06:32:14;101743.03;;;-3.94;85.79
74310;BME280;62722;51.142;17.052;2023-03-01T06:34:42;101741.31;;;-3.92;85.59
74310;BME280;62722;51.142;17.052;2023-03-01T06:37:09;101746.53;;;-3.90;85.93
74310;BME280;62722;51.142;17.052;2023-03-01T06:39:36;101753.44;;;-3.87;86.10
74310;BME280;62722;51.142;17.052;2023-03-01T06:42:07;101729.38;;;-3.88;86.71
74310;BME280;62722;51.142;17.052;2023-03-01T06:44:36;101724.22;;;-3.86;86.63
74310;BME280;62722;51.142;17.052;2023-03-01T06:47:03;101728.59;;;-3.82;87.03
74310;BME280;62722;51.142;17.052;2023-03-01T06:49:30;101727.75;;;-3.81;87.17
74310;BME280;62722;51.142;17.052;2023-03-01T06:51:58;101726.09;;;-3.76;87.70
74310;BME280;62722;51.142;17.052;2023-03-01T06:54:25;101722.75;;;-3.69;88.13
74310;BME280;62722;51.142;17.052;2023-03-01T06:56:52;101731.50;;;-3.61;88.52
74310;BME280;62722;51.142;17.052;2023-03-01T06:59:21;101730.69;;;-3.59;88.27
74310;BME280;62722;51.142;17.052;2023-03-01T07:01:48;101725.69;;;-3.48;88.48
74310;BME280;62722;51.142;17.052;2023-03-01T07:04:16;101730.94;;;-3.42;88.72
74310;BME280;62722;51.142;17.052;2023-03-01T07:06:43;101729.25;;;-3.38;88.63
74310;BME280;62722;51.142;17.052;2023-03-01T07:09:10;101739.66;;;-3.32;88.89
74310;BME280;62722;51.142;17.052;2023-03-01T07:11:38;101738.91;;;-3.27;89.21
74310;BME280;62722;51.142;17.052;2023-03-01T07:14:05;101742.47;;;-3.19;89.38
74310;BME280;62722;51.142;17.052;2023-03-01T07:16:34;101735.59;;;-3.17;89.37
74310;BME280;62722;51.142;17.052;2023-03-01T07:19:01;101737.41;;;-3.11;89.58
74310;BME280;62722;51.142;17.052;2023-03-01T07:21:29;101739.16;;;-3.09;89.50
74310;BME280;62722;51.142;17.052;2023-03-01T07:23:56;101746.94;;;-3.06;89.64
74310;BME280;62722;51.142;17.052;2023-03-01T07:26:23;101734.09;;;-3.01;89.89
74310;BME280;62722;51.142;17.052;2023-03-01T07:28:51;101733.28;;;-2.96;89.95
74310;BME280;62722;51.142;17.052;2023-03-01T07:31:18;101722.13;;;-2.91;90.09
74310;BME280;62722;51.142;17.052;2023-03-01T07:33:47;101726.50;;;-2.89;90.23
74310;BME280;62722;51.142;17.052;2023-03-01T07:36:14;101723.94;;;-2.86;90.66
74310;BME280;62722;51.142;17.052;2023-03-01T07:38:42;101731.72;;;-2.83;90.56
74310;BME280;62722;51.142;17.052;2023-03-01T07:41:09;101725.81;;;-2.74;90.77
74310;BME280;62722;51.142;17.052;2023-03-01T07:43:37;101719.88;;;-2.67;90.69
74310;BME280;62722;51.142;17.052;2023-03-01T07:46:04;101717.31;;;-2.64;90.61
74310;BME280;62722;51.142;17.052;2023-03-01T07:48:32;101724.25;;;-2.60;90.81
74310;BME280;62722;51.142;17.052;2023-03-01T07:51:02;101726.16;;;-2.44;90.60
74310;BME280;62722;51.142;17.052;2023-03-01T07:53:31;101721.97;;;-2.31;90.14
74310;BME280;62722;51.142;17.052;2023-03-01T07:56:04;101720.38;;;-2.19;89.29
74310;BME280;62722;51.142;17.052;2023-03-01T07:58:34;101714.38;;;-2.15;89.19
74310;BME280;62722;51.142;17.052;2023-03-01T08:01:02;101713.53;;;-2.12;88.91
74310;BME280;62722;51.142;17.052;2023-03-01T08:03:30;101714.44;;;-2.09;88.53
74310;BME280;62722;51.142;17.052;2023-03-01T08:06:00;101701.47;;;-2.10;88.76
74310;BME280;62722;51.142;17.052;2023-03-01T08:08:28;101699.78;;;-2.08;88.56
74310;BME280;62722;51.142;17.052;2023-03-01T08:10:56;101690.31;;;-2.08;88.81
74310;BME280;62722;51.142;17.052;2023-03-01T08:13:24;101694.66;;;-2.02;87.73
74310;BME280;62722;51.142;17.052;2023-03-01T08:15:51;101701.56;;;-1.98;87.82
74310;BME280;62722;51.142;17.052;2023-03-01T08:18:20;101683.50;;;-1.93;85.60
74310;BME280;62722;51.142;17.052;2023-03-01T08:20:47;101695.66;;;-1.83;84.97
74310;BME280;62722;51.142;17.052;2023-03-01T08:23:16;101698.28;;;-1.79;84.76
74310;BME280;62722;51.142;17.052;2023-03-01T08:25:43;101692.28;;;-1.73;85.08
74310;BME280;62722;51.142;17.052;2023-03-01T08:28:11;101697.53;;;-1.61;82.28
74310;BME280;62722;51.142;17.052;2023-03-01T08:30:38;101693.31;;;-1.52;82.74
74310;BME280;62722;51.142;17.052;2023-03-01T08:33:05;101695.13;;;-1.35;79.30
74310;BME280;62722;51.142;17.052;2023-03-01T08:35:33;101694.44;;;-1.01;75.66
74310;BME280;62722;51.142;17.052;2023-03-01T08:38:00;101700.56;;;-0.79;76.35
74310;BME280;62722;51.142;17.052;2023-03-01T08:40:29;101694.53;;;-0.66;79.37
74310;BME280;62722;51.142;17.052;2023-03-01T08:42:58;101698.06;;;-0.49;79.58
74310;BME280;62722;51.142;17.052;2023-03-01T08:45:25;101707.56;;;-0.50;78.92
74310;BME280;62722;51.142;17.052;2023-03-01T08:47:53;101703.25;;;-0.40;77.78
74310;BME280;62722;51.142;17.052;2023-03-01T08:50:20;101707.59;;;-0.31;78.85
74310;BME280;62722;51.142;17.052;2023-03-01T08:52:48;101709.34;;;-0.29;78.22
74310;BME280;62722;51.142;17.052;2023-03-01T08:55:16;101703.28;;;-0.28;77.78
74310;BME280;62722;51.142;17.052;2023-03-01T08:57:45;101710.22;;;-0.30;77.70
74310;BME280;62722;51.142;17.052;2023-03-01T09:00:12;101710.22;;;-0.15;77.14
74310;BME280;62722;51.142;17.052;2023-03-01T09:02:41;101699.00;;;-0.09;76.99
74310;BME280;62722;51.142;17.052;2023-03-01T09:05:09;101696.38;;;-0.11;76.71
74310;BME280;62722;51.142;17.052;2023-03-01T09:07:36;101690.34;;;-0.08;76.16
74310;BME280;62722;51.142;17.052;2023-03-01T09:10:04;101684.28;;;-0.03;75.03
74310;BME280;62722;51.142;17.052;2023-03-01T09:12:32;101684.28;;;-0.01;75.20
74310;BME280;62722;51.142;17.052;2023-03-01T09:15:01;101697.25;;;0.10;73.15
74310;BME280;62722;51.142;17.052;2023-03-01T09:17:28;101691.19;;;0.20;72.78
74310;BME280;62722;51.142;17.052;2023-03-01T09:19:56;101687.72;;;0.22;72.27
74310;BME280;62722;51.142;17.052;2023-03-01T09:22:23;101694.66;;;0.16;72.59
74310;BME280;62722;51.142;17.052;2023-03-01T09:24:50;101686.00;;;0.08;74.37
74310;BME280;62722;51.142;17.052;2023-03-01T09:27:18;101687.75;;;0.03;75.04
74310;BME280;62722;51.142;17.052;2023-03-01T09:29:46;101676.50;;;0.13;72.75
74310;BME280;62722;51.142;17.052;2023-03-01T09:32:15;101683.41;;;0.24;71.76
74310;BME280;62722;51.142;17.052;2023-03-01T09:34:42;101679.97;;;0.25;71.70
74310;BME280;62722;51.142;17.052;2023-03-01T09:37:31;101673.00;;;0.27;71.33
74310;BME280;62722;51.142;17.052;2023-03-01T09:39:59;101669.53;;;0.27;72.13
74310;BME280;62722;51.142;17.052;2023-03-01T09:42:29;101687.72;;;0.24;72.09
74310;BME280;62722;51.142;17.052;2023-03-01T09:45:00;101666.97;;;0.28;71.56
74310;BME280;62722;51.142;17.052;2023-03-01T09:47:33;101664.34;;;0.42;70.36
74310;BME280;62722;51.142;17.052;2023-03-01T09:50:02;101660.03;;;0.44;70.87
74310;BME280;62722;51.142;17.052;2023-03-01T09:52:39;101665.16;;;0.56;70.18
74310;BME280;62722;51.142;17.052;2023-03-01T09:55:12;101663.41;;;0.64;70.08
74310;BME280;62722;51.142;17.052;2023-03-01T09:57:46;101664.22;;;0.83;67.99
74310;BME280;62722;51.142;17.052;2023-03-01T10:00:22;101672.00;;;0.87;68.72
74310;BME280;62722;51.142;17.052;2023-03-01T10:02:59;101668.53;;;0.96;67.09
74310;BME280;62722;51.142;17.052;2023-03-01T10:05:41;101670.19;;;1.09;66.09
74310;BME280;62722;51.142;17.052;2023-03-01T10:08:28;101658.94;;;1.04;66.89
74310;BME280;62722;51.142;17.052;2023-03-01T10:10:57;101663.28;;;1.01;64.99
74310;BME280;62722;51.142;17.052;2023-03-01T10:13:29;101666.69;;;1.18;64.71
74310;BME280;62722;51.142;17.052;2023-03-01T10:16:02;101662.31;;;1.24;66.02
74310;BME280;62722;51.142;17.052;2023-03-01T10:18:34;101656.25;;;1.22;65.29
74310;BME280;62722;51.142;17.052;2023-03-01T10:21:13;101656.25;;;1.21;65.09
74310;BME280;62722;51.142;17.052;2023-03-01T10:23:41;101656.25;;;1.21;65.51
74310;BME280;62722;51.142;17.052;2023-03-01T10:26:17;101649.25;;;1.30;64.55
74310;BME280;62722;51.142;17.052;2023-03-01T10:28:56;101643.19;;;1.30;63.37
74310;BME280;62722;51.142;17.052;2023-03-01T10:31:29;101642.34;;;1.28;64.61
74310;BME280;62722;51.142;17.052;2023-03-01T10:34:07;101637.09;;;1.35;63.47
74310;BME280;62722;51.142;17.052;2023-03-01T10:36:34;101635.38;;;1.36;64.68
74310;BME280;62722;51.142;17.052;2023-03-01T10:39:12;101635.31;;;1.42;65.35
74310;BME280;62722;51.142;17.052;2023-03-01T10:41:52;101625.75;;;1.47;64.16
74310;BME280;62722;51.142;17.052;2023-03-01T10:44:37;101622.31;;;1.40;64.47
74310;BME280;62722;51.142;17.052;2023-03-01T10:47:04;101621.47;;;1.40;65.43
74310;BME280;62722;51.142;17.052;2023-03-01T10:49:35;101620.59;;;1.42;64.35
74310;BME280;62722;51.142;17.052;2023-03-01T10:52:17;101621.38;;;1.55;64.35
74310;BME280;62722;51.142;17.052;2023-03-01T10:54:52;101623.06;;;1.62;63.97
74310;BME280;62722;51.142;17.052;2023-03-01T10:57:29;101616.06;;;1.67;64.00
74310;BME280;62722;51.142;17.052;2023-03-01T11:00:21;101619.41;;;1.81;63.00
74310;BME280;62722;51.142;17.052;2023-03-01T11:03:01;101625.44;;;1.88;62.16
74310;BME280;62722;51.142;17.052;2023-03-01T11:05:30;101609.78;;;1.95;61.36
74310;BME280;62722;51.142;17.052;2023-03-01T11:08:00;101608.69;;;2.18;61.23
74310;BME280;62722;51.142;17.052;2023-03-01T11:10:30;101602.41;;;2.35;60.45
74310;BME280;62722;51.142;17.052;2023-03-01T11:13:14;101591.22;;;2.29;60.55
74310;BME280;62722;51.142;17.052;2023-03-01T11:15:43;101588.69;;;2.21;60.84
74310;BME280;62722;51.142;17.052;2023-03-01T11:18:26;101591.25;;;2.23;60.87
74310;BME280;62722;51.142;17.052;2023-03-01T11:20:55;101595.63;;;2.19;60.61
74310;BME280;62722;51.142;17.052;2023-03-01T11:23:25;101598.19;;;2.24;59.89
74310;BME280;62722;51.142;17.052;2023-03-01T11:25:56;101596.44;;;2.26;60.50
74310;BME280;62722;51.142;17.052;2023-03-01T11:28:27;101597.34;;;2.23;61.05
74310;BME280;62722;51.142;17.052;2023-03-01T11:30:59;101600.66;;;2.37;59.11
74310;BME280;62722;51.142;17.052;2023-03-01T11:33:35;101593.72;;;2.36;58.60
74310;BME280;62722;51.142;17.052;2023-03-01T11:36:11;101586.84;;;2.29;57.87
74310;BME280;62722;51.142;17.052;2023-03-01T11:38:43;101584.25;;;2.28;58.48
74310;BME280;62722;51.142;17.052;2023-03-01T11:41:15;101579.84;;;2.36;57.89
74310;BME280;62722;51.142;17.052;2023-03-01T11:43:51;101591.75;;;2.57;58.03
74310;BME280;62722;51.142;17.052;2023-03-01T11:46:40;101583.75;;;2.73;57.39
74310;BME280;62722;51.142;17.052;2023-03-01T11:49:32;101584.63;;;2.72;56.04
74310;BME280;62722;51.142;17.052;2023-03-01T11:52:10;101589.91;;;2.65;56.83
74310;BME280;62722;51.142;17.052;2023-03-01T11:54:54;101590.00;;;2.59;57.55
74310;BME280;62722;51.142;17.052;2023-03-01T11:57:37;101576.06;;;2.61;56.20
74310;BME280;62722;51.142;17.052;2023-03-01T12:00:24;101574.19;;;2.71;55.73
74310;BME280;62722;51.142;17.052;2023-03-01T12:03:05;101585.25;;;2.91;55.77
74310;BME280;62722;51.142;17.052;2023-03-01T12:05:57;101576.56;;;2.90;55.92
74310;BME280;62722;51.142;17.052;2023-03-01T12:08:35;101576.66;;;2.83;56.04
74310;BME280;62722;51.142;17.052;2023-03-01T12:11:14;101573.28;;;2.76;55.55
74310;BME280;62722;51.142;17.052;2023-03-01T12:13:56;101571.53;;;2.75;55.62
74310;BME280;62722;51.142;17.052;2023-03-01T12:16:34;101565.50;;;2.72;55.95
74310;BME280;62722;51.142;17.052;2023-03-01T12:19:24;101561.00;;;2.84;54.50
74310;BME280;62722;51.142;17.052;2023-03-01T12:22:14;101541.78;;;2.88;53.23
74310;BME280;62722;51.142;17.052;2023-03-01T12:25:06;101548.84;;;2.83;52.86
74310;BME280;62722;51.142;17.052;2023-03-01T12:27:58;101547.06;;;2.85;53.47
74310;BME280;62722;51.142;17.052;2023-03-01T12:30:39;101541.78;;;2.91;52.54
74310;BME280;62722;51.142;17.052;2023-03-01T12:33:19;101546.03;;;2.99;51.72
74310;BME280;62722;51.142;17.052;2023-03-01T12:35:58;101550.00;;;3.24;50.41
74310;BME280;62722;51.142;17.052;2023-03-01T12:38:33;101541.31;;;3.22;49.32
74310;BME280;62722;51.142;17.052;2023-03-01T12:41:33;101542.13;;;3.27;50.30
74310;BME280;62722;51.142;17.052;2023-03-01T12:44:14;101538.75;;;3.19;49.53
74310;BME280;62722;51.142;17.052;2023-03-01T12:46:59;101529.25;;;3.15;50.74
74310;BME280;62722;51.142;17.052;2023-03-01T12:49:35;101521.41;;;3.15;50.19
74310;BME280;62722;51.142;17.052;2023-03-01T12:52:11;101515.34;;;3.14;51.30
74310;BME280;62722;51.142;17.052;2023-03-01T12:54:41;101503.94;;;3.21;50.33
74310;BME280;62722;51.142;17.052;2023-03-01T12:57:15;101497.56;;;3.39;48.73
74310;BME280;62722;51.142;17.052;2023-03-01T12:59:51;101501.59;;;3.57;49.01
74310;BME280;62722;51.142;17.052;2023-03-01T13:02:31;101509.97;;;3.77;48.73